Weather Data

Pearl Creek Farm: 8878 N Farm Road 75, Walnut Grove MO 65770

<== Previous Day (Thursday 10 Mar 2011) | Next Day (Saturday 12 Mar 2011) ==>

Summary Precipitation Data For Friday 11 March 2011

ElementValueUnits
Precipitation0"
Notes(none)
SourcePearl Creek Farm

Summary Temperature Data For Friday 11 March 2011

ElementValueUnits
High Temperature70 oF
Low Temperature29 oF
Average Temperature49 oF
High Humidity82 %
Low Humidity21 %
Average Humidity51 %
SourceSpringfield-Branson National Airport (SGF)

Detail Temperature Data For Friday 11 March 2011

Date / TimeTemp (F)RH (%)Dew Pt (F)Report Date / TimeSource
2011-03-11 00:52:00 32 79 26.0 2017-12-29 17:00:26.17417 Springfield-Branson National Airport (SGF)
2011-03-11 01:52:00 30 82 25.0 2017-12-29 17:00:26.17417 Springfield-Branson National Airport (SGF)
2011-03-11 02:52:00 29 82 24.0 2017-12-29 17:00:26.17417 Springfield-Branson National Airport (SGF)
2011-03-11 03:52:00 32 79 26.0 2017-12-29 17:00:26.17417 Springfield-Branson National Airport (SGF)
2011-03-11 04:52:00 31 79 25.0 2017-12-29 17:00:26.17417 Springfield-Branson National Airport (SGF)
2011-03-11 05:52:00 32 75 25.0 2017-12-29 17:00:26.17417 Springfield-Branson National Airport (SGF)
2011-03-11 06:52:00 33 75 26.0 2017-12-29 17:00:26.17417 Springfield-Branson National Airport (SGF)
2011-03-11 07:52:00 38 68 28.0 2017-12-29 17:00:26.17417 Springfield-Branson National Airport (SGF)
2011-03-11 08:52:00 47 48 28.0 2017-12-29 17:00:26.17417 Springfield-Branson National Airport (SGF)
2011-03-11 09:52:00 51 44 30.0 2017-12-29 17:00:26.17417 Springfield-Branson National Airport (SGF)
2011-03-11 10:52:00 57 37 31.0 2017-12-29 17:00:26.17417 Springfield-Branson National Airport (SGF)
2011-03-11 11:52:00 62 32 32.0 2017-12-29 17:00:26.17417 Springfield-Branson National Airport (SGF)
2011-03-11 12:52:00 67 25 30.0 2017-12-29 17:00:26.17417 Springfield-Branson National Airport (SGF)
2011-03-11 13:52:00 69 22 28.0 2017-12-29 17:00:26.17417 Springfield-Branson National Airport (SGF)
2011-03-11 14:52:00 70 22 29.0 2017-12-29 17:00:26.17417 Springfield-Branson National Airport (SGF)
2011-03-11 15:52:00 69 21 27.0 2017-12-29 17:00:26.17417 Springfield-Branson National Airport (SGF)
2011-03-11 16:52:00 66 25 29.0 2017-12-29 17:00:26.17417 Springfield-Branson National Airport (SGF)
2011-03-11 17:52:00 61 32 31.0 2017-12-29 17:00:26.17417 Springfield-Branson National Airport (SGF)
2011-03-11 18:52:00 52 47 32.0 2017-12-29 17:00:26.17417 Springfield-Branson National Airport (SGF)
2011-03-11 19:52:00 52 47 32.0 2017-12-29 17:00:26.17417 Springfield-Branson National Airport (SGF)
2011-03-11 20:52:00 52 47 32.0 2017-12-29 17:00:26.17417 Springfield-Branson National Airport (SGF)
2011-03-11 21:52:00 51 48 32.0 2017-12-29 17:00:26.17417 Springfield-Branson National Airport (SGF)
2011-03-11 22:52:00 48 52 31.0 2017-12-29 17:00:26.17417 Springfield-Branson National Airport (SGF)
2011-03-11 23:52:00 45 58 31.0 2017-12-29 17:00:26.17417 Springfield-Branson National Airport (SGF)

A total of 24 rows are displayed.